sensor_id;sensor_type;location;lat;lon;timestamp;pressure;altitude;pressure_sealevel;temperature;humidity
32197;BME280;18697;42.770;23.400;2022-07-29T00:01:19;95772.00;;;23.97;63.18
32197;BME280;18697;42.770;23.400;2022-07-29T00:03:45;95769.28;;;23.91;63.54
32197;BME280;18697;42.770;23.400;2022-07-29T00:06:10;95768.72;;;23.93;63.21
32197;BME280;18697;42.770;23.400;2022-07-29T00:08:35;95789.81;;;24.18;63.08
32197;BME280;18697;42.770;23.400;2022-07-29T00:11:01;95789.25;;;24.33;61.96
32197;BME280;18697;42.770;23.400;2022-07-29T00:13:27;95802.66;;;24.53;61.58
32197;BME280;18697;42.770;23.400;2022-07-29T00:15:52;95799.19;;;24.68;60.74
32197;BME280;18697;42.770;23.400;2022-07-29T00:18:17;95798.78;;;24.85;60.24
32197;BME280;18697;42.770;23.400;2022-07-29T00:20:43;95789.34;;;24.90;60.23
32197;BME280;18697;42.770;23.400;2022-07-29T00:23:08;95790.41;;;25.00;59.95
32197;BME280;18697;42.770;23.400;2022-07-29T00:25:34;95773.34;;;25.00;59.49
32197;BME280;18697;42.770;23.400;2022-07-29T00:27:59;95786.50;;;25.11;59.15
32197;BME280;18697;42.770;23.400;2022-07-29T00:30:24;95784.06;;;25.15;59.14
32197;BME280;18697;42.770;23.400;2022-07-29T00:32:50;95788.44;;;25.16;59.01
32197;BME280;18697;42.770;23.400;2022-07-29T00:35:15;95777.97;;;25.11;59.17
32197;BME280;18697;42.770;23.400;2022-07-29T00:37:59;95773.66;;;25.17;59.01
32197;BME280;18697;42.770;23.400;2022-07-29T00:40:24;95781.06;;;25.20;58.67
32197;BME280;18697;42.770;23.400;2022-07-29T00:42:51;95775.97;;;25.27;58.70
32197;BME280;18697;42.770;23.400;2022-07-29T00:45:17;95779.56;;;25.27;58.96
32197;BME280;18697;42.770;23.400;2022-07-29T00:47:43;95775.81;;;25.25;59.07
32197;BME280;18697;42.770;23.400;2022-07-29T00:50:10;95788.84;;;25.20;58.65
32197;BME280;18697;42.770;23.400;2022-07-29T00:52:37;95795.69;;;25.25;58.85
32197;BME280;18697;42.770;23.400;2022-07-29T00:55:04;95802.03;;;25.10;58.75
32197;BME280;18697;42.770;23.400;2022-07-29T00:57:30;95796.50;;;25.04;58.67
32197;BME280;18697;42.770;23.400;2022-07-29T00:59:55;95802.28;;;25.19;58.54
32197;BME280;18697;42.770;23.400;2022-07-29T01:02:21;95781.06;;;25.20;58.16
32197;BME280;18697;42.770;23.400;2022-07-29T01:04:46;95788.66;;;25.26;58.18
32197;BME280;18697;42.770;23.400;2022-07-29T01:07:12;95780.13;;;25.18;58.09
32197;BME280;18697;42.770;23.400;2022-07-29T01:09:38;95776.72;;;25.19;57.85
32197;BME280;18697;42.770;23.400;2022-07-29T01:12:04;95790.78;;;25.33;57.76
32197;BME280;18697;42.770;23.400;2022-07-29T01:14:30;95777.50;;;25.28;57.57
32197;BME280;18697;42.770;23.400;2022-07-29T01:19:50;95784.31;;;25.25;57.63
32197;BME280;18697;42.770;23.400;2022-07-29T01:22:35;95775.97;;;25.27;57.60
32197;BME280;18697;42.770;23.400;2022-07-29T01:30:51;95776.25;;;24.87;58.47
32197;BME280;18697;42.770;23.400;2022-07-29T01:33:17;95772.81;;;24.81;58.52
32197;BME280;18697;42.770;23.400;2022-07-29T01:36:11;95757.97;;;24.75;58.69
32197;BME280;18697;42.770;23.400;2022-07-29T01:38:41;95759.09;;;24.72;58.50
32197;BME280;18697;42.770;23.400;2022-07-29T01:41:12;95761.59;;;24.75;58.46
32197;BME280;18697;42.770;23.400;2022-07-29T01:43:44;95762.00;;;24.79;58.18
32197;BME280;18697;42.770;23.400;2022-07-29T01:46:19;95760.13;;;24.82;58.03
32197;BME280;18697;42.770;23.400;2022-07-29T01:48:54;95752.09;;;24.73;57.84
32197;BME280;18697;42.770;23.400;2022-07-29T01:51:34;95747.69;;;24.64;58.29
32197;BME280;18697;42.770;23.400;2022-07-29T01:54:08;95743.09;;;24.61;58.21
32197;BME280;18697;42.770;23.400;2022-07-29T01:56:36;95740.63;;;24.57;58.35
32197;BME280;18697;42.770;23.400;2022-07-29T01:59:05;95740.00;;;24.51;58.58
32197;BME280;18697;42.770;23.400;2022-07-29T02:01:33;95737.38;;;24.53;58.77
32197;BME280;18697;42.770;23.400;2022-07-29T02:04:03;95738.84;;;24.47;58.75
32197;BME280;18697;42.770;23.400;2022-07-29T02:06:30;95734.63;;;24.40;58.72
32197;BME280;18697;42.770;23.400;2022-07-29T02:08:58;95754.31;;;24.25;59.30
32197;BME280;18697;42.770;23.400;2022-07-29T02:11:24;95751.88;;;24.08;59.60
32197;BME280;18697;42.770;23.400;2022-07-29T02:13:52;95753.63;;;24.11;59.60
32197;BME280;18697;42.770;23.400;2022-07-29T02:16:21;95755.34;;;24.14;59.52
32197;BME280;18697;42.770;23.400;2022-07-29T02:18:49;95742.81;;;24.10;59.39
32197;BME280;18697;42.770;23.400;2022-07-29T02:21:19;95746.59;;;24.26;59.45
32197;BME280;18697;42.770;23.400;2022-07-29T02:23:46;95751.78;;;24.35;59.06
32197;BME280;18697;42.770;23.400;2022-07-29T02:26:13;95748.81;;;24.40;58.58
32197;BME280;18697;42.770;23.400;2022-07-29T02:28:39;95748.88;;;24.27;58.82
32197;BME280;18697;42.770;23.400;2022-07-29T02:31:05;95750.81;;;23.98;60.00
32197;BME280;18697;42.770;23.400;2022-07-29T02:33:33;95740.44;;;24.01;59.87
32197;BME280;18697;42.770;23.400;2022-07-29T02:35:59;95743.38;;;24.08;59.63
32197;BME280;18697;42.770;23.400;2022-07-29T02:38:28;95741.16;;;24.14;59.43
32197;BME280;18697;42.770;23.400;2022-07-29T02:41:15;95739.50;;;24.19;59.54
32197;BME280;18697;42.770;23.400;2022-07-29T02:43:43;95752.69;;;24.30;59.40
32197;BME280;18697;42.770;23.400;2022-07-29T02:46:14;95739.88;;;24.36;58.94
32197;BME280;18697;42.770;23.400;2022-07-29T02:48:51;95757.75;;;24.44;58.78
32197;BME280;18697;42.770;23.400;2022-07-29T02:51:27;95744.19;;;24.50;58.86
32197;BME280;18697;42.770;23.400;2022-07-29T02:53:56;95740.56;;;24.50;58.69
32197;BME280;18697;42.770;23.400;2022-07-29T02:56:25;95734.13;;;24.49;58.48
32197;BME280;18697;42.770;23.400;2022-07-29T02:58:58;95730.81;;;24.38;58.37
32197;BME280;18697;42.770;23.400;2022-07-29T03:01:30;95743.41;;;24.29;58.86
32197;BME280;18697;42.770;23.400;2022-07-29T03:03:57;95743.19;;;23.93;60.19
32197;BME280;18697;42.770;23.400;2022-07-29T03:06:26;95736.78;;;23.92;60.22
32197;BME280;18697;42.770;23.400;2022-07-29T03:08:53;95733.16;;;23.92;60.55
32197;BME280;18697;42.770;23.400;2022-07-29T03:11:20;95733.22;;;23.79;60.62
32197;BME280;18697;42.770;23.400;2022-07-29T03:13:46;95731.50;;;23.76;61.12
32197;BME280;18697;42.770;23.400;2022-07-29T03:16:12;95723.94;;;23.78;61.00
32197;BME280;18697;42.770;23.400;2022-07-29T03:18:38;95724.44;;;23.90;61.03
32197;BME280;18697;42.770;23.400;2022-07-29T03:21:04;95719.63;;;23.98;60.72
32197;BME280;18697;42.770;23.400;2022-07-29T03:23:30;95722.31;;;24.04;60.22
32197;BME280;18697;42.770;23.400;2022-07-29T03:25:55;95711.53;;;24.02;60.41
32197;BME280;18697;42.770;23.400;2022-07-29T03:28:21;95709.47;;;24.03;60.67
32197;BME280;18697;42.770;23.400;2022-07-29T03:30:48;95717.53;;;23.99;60.74
32197;BME280;18697;42.770;23.400;2022-07-29T03:33:14;95719.91;;;24.08;60.44
32197;BME280;18697;42.770;23.400;2022-07-29T03:35:39;95716.53;;;24.09;60.20
32197;BME280;18697;42.770;23.400;2022-07-29T03:38:05;95718.88;;;24.18;59.70
32197;BME280;18697;42.770;23.400;2022-07-29T03:43:02;95724.91;;;24.15;59.46
32197;BME280;18697;42.770;23.400;2022-07-29T03:45:31;95728.28;;;24.13;59.64
32197;BME280;18697;42.770;23.400;2022-07-29T03:48:00;95723.16;;;24.12;59.56
32197;BME280;18697;42.770;23.400;2022-07-29T03:50:27;95731.13;;;24.13;59.39
32197;BME280;18697;42.770;23.400;2022-07-29T03:52:53;95741.16;;;24.14;59.93
32197;BME280;18697;42.770;23.400;2022-07-29T03:55:19;95735.19;;;24.05;59.90
32197;BME280;18697;42.770;23.400;2022-07-29T03:57:45;95741.28;;;24.09;59.99
32197;BME280;18697;42.770;23.400;2022-07-29T04:00:12;95747.19;;;24.11;59.76
32197;BME280;18697;42.770;23.400;2022-07-29T04:02:38;95746.34;;;24.23;59.65
32197;BME280;18697;42.770;23.400;2022-07-29T04:05:05;95743.41;;;24.29;59.66
32197;BME280;18697;42.770;23.400;2022-07-29T04:07:36;95745.97;;;24.40;59.71
32197;BME280;18697;42.770;23.400;2022-07-29T04:10:01;95742.25;;;24.45;59.47
32197;BME280;18697;42.770;23.400;2022-07-29T04:12:27;95750.25;;;24.54;59.10
32197;BME280;18697;42.770;23.400;2022-07-29T04:14:52;95746.09;;;24.55;59.09
32197;BME280;18697;42.770;23.400;2022-07-29T04:17:18;95753.09;;;24.54;59.07
32197;BME280;18697;42.770;23.400;2022-07-29T04:19:43;95741.94;;;24.56;59.47
32197;BME280;18697;42.770;23.400;2022-07-29T04:22:08;95742.63;;;24.70;59.28
32197;BME280;18697;42.770;23.400;2022-07-29T04:24:34;95756.59;;;24.68;59.26
32197;BME280;18697;42.770;23.400;2022-07-29T04:26:59;95751.91;;;24.71;59.54
32197;BME280;18697;42.770;23.400;2022-07-29T04:29:25;95742.97;;;24.67;59.05
32197;BME280;18697;42.770;23.400;2022-07-29T04:31:50;95750.38;;;24.70;59.49
32197;BME280;18697;42.770;23.400;2022-07-29T04:34:16;95740.19;;;24.74;59.42
32197;BME280;18697;42.770;23.400;2022-07-29T04:36:41;95736.28;;;24.85;59.26
32197;BME280;18697;42.770;23.400;2022-07-29T04:39:06;95743.69;;;24.88;59.11
32197;BME280;18697;42.770;23.400;2022-07-29T04:41:32;95761.34;;;24.94;58.96
32197;BME280;18697;42.770;23.400;2022-07-29T04:43:57;95757.97;;;24.96;58.64
32197;BME280;18697;42.770;23.400;2022-07-29T04:46:23;95763.09;;;24.97;59.22
32197;BME280;18697;42.770;23.400;2022-07-29T04:48:48;95762.75;;;25.01;58.99
32197;BME280;18697;42.770;23.400;2022-07-29T04:51:14;95768.09;;;25.04;58.74
32197;BME280;18697;42.770;23.400;2022-07-29T04:53:40;95770.00;;;25.09;58.95
32197;BME280;18697;42.770;23.400;2022-07-29T04:56:05;95771.47;;;25.03;58.87
32197;BME280;18697;42.770;23.400;2022-07-29T04:58:30;95762.75;;;25.01;59.06
32197;BME280;18697;42.770;23.400;2022-07-29T05:00:56;95773.78;;;25.04;59.29
32197;BME280;18697;42.770;23.400;2022-07-29T05:03:21;95763.78;;;25.11;59.01
32197;BME280;18697;42.770;23.400;2022-07-29T05:05:47;95771.22;;;24.72;61.48
32197;BME280;18697;42.770;23.400;2022-07-29T05:08:12;95769.53;;;24.48;62.09
32197;BME280;18697;42.770;23.400;2022-07-29T05:10:38;95762.38;;;24.55;61.53
32197;BME280;18697;42.770;23.400;2022-07-29T05:13:07;95749.19;;;24.65;60.97
32197;BME280;18697;42.770;23.400;2022-07-29T05:15:36;95775.84;;;24.83;61.85
32197;BME280;18697;42.770;23.400;2022-07-29T05:18:02;95771.94;;;24.10;65.00
32197;BME280;18697;42.770;23.400;2022-07-29T05:20:29;95772.16;;;24.12;64.00
32197;BME280;18697;42.770;23.400;2022-07-29T05:22:55;95765.72;;;24.12;63.56
32197;BME280;18697;42.770;23.400;2022-07-29T05:25:21;95770.91;;;24.34;63.60
32197;BME280;18697;42.770;23.400;2022-07-29T05:27:47;95768.66;;;24.19;63.81
32197;BME280;18697;42.770;23.400;2022-07-29T05:30:12;95772.78;;;23.84;65.04
32197;BME280;18697;42.770;23.400;2022-07-29T05:32:38;95780.13;;;24.14;64.42
32197;BME280;18697;42.770;23.400;2022-07-29T05:35:03;95778.22;;;24.30;63.44
32197;BME280;18697;42.770;23.400;2022-07-29T05:37:29;95779.84;;;24.38;63.45
32197;BME280;18697;42.770;23.400;2022-07-29T05:39:54;95769.53;;;24.48;64.27
32197;BME280;18697;42.770;23.400;2022-07-29T05:42:20;95769.97;;;24.60;63.37
32197;BME280;18697;42.770;23.400;2022-07-29T05:44:45;95769.78;;;24.58;61.82
32197;BME280;18697;42.770;23.400;2022-07-29T05:47:10;95773.94;;;24.57;62.28
32197;BME280;18697;42.770;23.400;2022-07-29T05:49:36;95779.56;;;24.49;61.38
32197;BME280;18697;42.770;23.400;2022-07-29T05:52:02;95779.50;;;24.42;59.97
32197;BME280;18697;42.770;23.400;2022-07-29T05:54:27;95770.59;;;23.90;62.58
32197;BME280;18697;42.770;23.400;2022-07-29T05:56:53;95770.84;;;24.13;62.42
32197;BME280;18697;42.770;23.400;2022-07-29T05:59:18;95775.41;;;24.30;59.56
32197;BME280;18697;42.770;23.400;2022-07-29T06:01:43;95774.19;;;24.25;59.25
32197;BME280;18697;42.770;23.400;2022-07-29T06:04:09;95777.69;;;24.31;57.78
32197;BME280;18697;42.770;23.400;2022-07-29T06:06:34;95785.09;;;24.34;58.07
32197;BME280;18697;42.770;23.400;2022-07-29T06:09:01;95790.28;;;24.43;57.34
32197;BME280;18697;42.770;23.400;2022-07-29T06:11:27;95780.88;;;24.48;57.46
32197;BME280;18697;42.770;23.400;2022-07-29T06:13:52;95786.41;;;24.33;58.00
32197;BME280;18697;42.770;23.400;2022-07-29T06:16:18;95783.94;;;24.50;58.10
32197;BME280;18697;42.770;23.400;2022-07-29T06:18:44;95778.84;;;24.56;58.00
32197;BME280;18697;42.770;23.400;2022-07-29T06:21:09;95789.22;;;24.54;55.55
32197;BME280;18697;42.770;23.400;2022-07-29T06:23:36;95777.47;;;24.50;56.10
32197;BME280;18697;42.770;23.400;2022-07-29T06:26:02;95793.00;;;24.49;55.22
32197;BME280;18697;42.770;23.400;2022-07-29T06:28:27;95781.22;;;24.45;56.25
32197;BME280;18697;42.770;23.400;2022-07-29T06:30:53;95783.97;;;24.58;55.60
32197;BME280;18697;42.770;23.400;2022-07-29T06:33:18;95782.94;;;24.69;55.14
32197;BME280;18697;42.770;23.400;2022-07-29T06:35:44;95787.09;;;24.68;54.76
32197;BME280;18697;42.770;23.400;2022-07-29T06:38:10;95781.31;;;24.81;54.77
32197;BME280;18697;42.770;23.400;2022-07-29T06:40:36;95771.84;;;24.99;54.34
32197;BME280;18697;42.770;23.400;2022-07-29T06:43:20;95771.34;;;25.08;52.80
32197;BME280;18697;42.770;23.400;2022-07-29T06:45:46;95770.13;;;25.25;54.22
32197;BME280;18697;42.770;23.400;2022-07-29T06:48:11;95766.41;;;25.45;54.38
32197;BME280;18697;42.770;23.400;2022-07-29T06:50:37;95768.94;;;25.56;52.10
32197;BME280;18697;42.770;23.400;2022-07-29T06:53:03;95767.41;;;25.55;51.55
32197;BME280;18697;42.770;23.400;2022-07-29T06:55:28;95771.06;;;25.63;52.34
32197;BME280;18697;42.770;23.400;2022-07-29T06:57:53;95759.28;;;25.59;53.04
32197;BME280;18697;42.770;23.400;2022-07-29T07:00:19;95761.63;;;25.68;51.63
32197;BME280;18697;42.770;23.400;2022-07-29T07:02:44;95775.91;;;25.83;51.92
32197;BME280;18697;42.770;23.400;2022-07-29T07:05:10;95768.53;;;25.88;51.85
32197;BME280;18697;42.770;23.400;2022-07-29T07:07:35;95763.63;;;26.04;51.25
32197;BME280;18697;42.770;23.400;2022-07-29T07:10:01;95756.44;;;26.10;50.51
32197;BME280;18697;42.770;23.400;2022-07-29T07:12:26;95765.94;;;26.20;50.02
32197;BME280;18697;42.770;23.400;2022-07-29T07:14:51;95762.53;;;26.22;50.09
32197;BME280;18697;42.770;23.400;2022-07-29T07:17:17;95756.84;;;26.22;50.98
32197;BME280;18697;42.770;23.400;2022-07-29T07:19:42;95763.06;;;26.05;51.02
32197;BME280;18697;42.770;23.400;2022-07-29T07:22:07;95765.16;;;26.05;50.55
32197;BME280;18697;42.770;23.400;2022-07-29T07:24:33;95758.53;;;26.17;50.87
32197;BME280;18697;42.770;23.400;2022-07-29T07:26:58;95754.94;;;26.17;51.22
32197;BME280;18697;42.770;23.400;2022-07-29T07:29:24;95761.03;;;26.21;51.69
32197;BME280;18697;42.770;23.400;2022-07-29T07:31:49;95764.88;;;26.31;51.99
32197;BME280;18697;42.770;23.400;2022-07-29T07:34:14;95759.00;;;26.37;50.92
32197;BME280;18697;42.770;23.400;2022-07-29T07:36:40;95754.25;;;26.47;51.10
32197;BME280;18697;42.770;23.400;2022-07-29T07:39:05;95744.75;;;26.37;51.12
32197;BME280;18697;42.770;23.400;2022-07-29T07:41:31;95749.91;;;26.54;52.97
32197;BME280;18697;42.770;23.400;2022-07-29T07:43:56;95749.31;;;26.78;49.31
32197;BME280;18697;42.770;23.400;2022-07-29T07:46:22;95747.03;;;26.84;52.45
32197;BME280;18697;42.770;23.400;2022-07-29T07:48:47;95744.56;;;26.96;51.22
32197;BME280;18697;42.770;23.400;2022-07-29T07:51:13;95757.47;;;27.20;50.76
32197;BME280;18697;42.770;23.400;2022-07-29T07:53:38;95740.56;;;27.22;49.97
32197;BME280;18697;42.770;23.400;2022-07-29T07:56:04;95735.22;;;27.33;50.08
32197;BME280;18697;42.770;23.400;2022-07-29T07:58:31;95735.97;;;27.34;48.77
32197;BME280;18697;42.770;23.400;2022-07-29T08:00:56;95740.53;;;27.29;47.69
32197;BME280;18697;42.770;23.400;2022-07-29T08:03:22;95742.44;;;27.27;49.29
32197;BME280;18697;42.770;23.400;2022-07-29T08:05:47;95750.00;;;27.47;48.84
32197;BME280;18697;42.770;23.400;2022-07-29T08:08:13;95730.03;;;27.47;48.24
32197;BME280;18697;42.770;23.400;2022-07-29T08:10:38;95745.44;;;27.44;47.70
32197;BME280;18697;42.770;23.400;2022-07-29T08:13:22;95744.81;;;27.61;49.15
32197;BME280;18697;42.770;23.400;2022-07-29T08:15:48;95746.06;;;27.83;48.17
32197;BME280;18697;42.770;23.400;2022-07-29T08:18:23;95745.19;;;27.65;49.21
32197;BME280;18697;42.770;23.400;2022-07-29T08:20:48;95738.75;;;27.49;48.86
32197;BME280;18697;42.770;23.400;2022-07-29T08:23:14;95739.19;;;27.38;49.03
32197;BME280;18697;42.770;23.400;2022-07-29T08:25:39;95743.50;;;27.62;48.21
32197;BME280;18697;42.770;23.400;2022-07-29T08:28:05;95744.22;;;27.70;47.92
32197;BME280;18697;42.770;23.400;2022-07-29T08:30:31;95735.47;;;27.68;47.16
32197;BME280;18697;42.770;23.400;2022-07-29T08:32:57;95729.16;;;27.77;48.16
32197;BME280;18697;42.770;23.400;2022-07-29T08:35:24;95730.50;;;27.76;47.62
32197;BME280;18697;42.770;23.400;2022-07-29T08:37:50;95731.88;;;27.67;47.75
32197;BME280;18697;42.770;23.400;2022-07-29T08:40:16;95725.91;;;27.80;48.62
32197;BME280;18697;42.770;23.400;2022-07-29T08:42:41;95727.91;;;28.03;47.38
32197;BME280;18697;42.770;23.400;2022-07-29T08:45:07;95716.84;;;28.07;47.84
32197;BME280;18697;42.770;23.400;2022-07-29T08:47:33;95722.88;;;28.43;47.22
32197;BME280;18697;42.770;23.400;2022-07-29T08:50:02;95717.63;;;28.32;46.27
32197;BME280;18697;42.770;23.400;2022-07-29T08:52:29;95729.34;;;28.44;45.86
32197;BME280;18697;42.770;23.400;2022-07-29T08:54:55;95732.56;;;28.48;46.57
32197;BME280;18697;42.770;23.400;2022-07-29T08:57:21;95723.97;;;28.23;45.06
32197;BME280;18697;42.770;23.400;2022-07-29T08:59:49;95718.75;;;28.37;45.46
32197;BME280;18697;42.770;23.400;2022-07-29T09:02:19;95719.09;;;28.66;44.27
32197;BME280;18697;42.770;23.400;2022-07-29T09:04:45;95725.06;;;29.02;44.03
32197;BME280;18697;42.770;23.400;2022-07-29T09:07:14;95740.84;;;29.28;43.98
32197;BME280;18697;42.770;23.400;2022-07-29T09:09:40;95718.09;;;29.13;43.60
32197;BME280;18697;42.770;23.400;2022-07-29T09:12:05;95719.38;;;29.37;43.51
32197;BME280;18697;42.770;23.400;2022-07-29T09:14:33;95720.16;;;29.37;41.55
32197;BME280;18697;42.770;23.400;2022-07-29T09:16:59;95710.16;;;29.46;42.17
32197;BME280;18697;42.770;23.400;2022-07-29T09:21:50;95708.47;;;29.60;41.80
32197;BME280;18697;42.770;23.400;2022-07-29T09:27:18;95718.69;;;29.81;40.09
32197;BME280;18697;42.770;23.400;2022-07-29T09:29:44;95706.94;;;29.59;41.25
32197;BME280;18697;42.770;23.400;2022-07-29T09:32:10;95706.44;;;29.53;41.86
32197;BME280;18697;42.770;23.400;2022-07-29T09:34:36;95708.41;;;29.77;41.71
32197;BME280;18697;42.770;23.400;2022-07-29T09:37:02;95704.75;;;29.94;40.66
32197;BME280;18697;42.770;23.400;2022-07-29T09:39:33;95709.94;;;30.23;38.95
32197;BME280;18697;42.770;23.400;2022-07-29T09:42:02;95702.16;;;30.06;37.52
32197;BME280;18697;42.770;23.400;2022-07-29T09:44:45;95701.63;;;30.17;37.87
32197;BME280;18697;42.770;23.400;2022-07-29T09:47:11;95703.41;;;29.95;37.82
32197;BME280;18697;42.770;23.400;2022-07-29T09:50:03;95705.53;;;29.95;39.19
32197;BME280;18697;42.770;23.400;2022-07-29T09:52:29;95697.47;;;29.84;37.90
32197;BME280;18697;42.770;23.400;2022-07-29T09:55:08;95688.44;;;30.04;36.47
32197;BME280;18697;42.770;23.400;2022-07-29T09:57:34;95678.59;;;30.25;36.37
32197;BME280;18697;42.770;23.400;2022-07-29T10:00:05;95682.22;;;30.25;36.65
32197;BME280;18697;42.770;23.400;2022-07-29T10:02:36;95681.22;;;30.50;36.08
32197;BME280;18697;42.770;23.400;2022-07-29T10:05:05;95673.00;;;30.63;36.21
32197;BME280;18697;42.770;23.400;2022-07-29T10:07:54;95673.63;;;30.62;35.13
32197;BME280;18697;42.770;23.400;2022-07-29T10:10:30;95677.88;;;30.70;36.15
32197;BME280;18697;42.770;23.400;2022-07-29T10:12:58;95674.97;;;30.61;35.96
32197;BME280;18697;42.770;23.400;2022-07-29T10:15:26;95664.94;;;30.43;35.53
32197;BME280;18697;42.770;23.400;2022-07-29T10:17:53;95669.44;;;30.46;36.50
32197;BME280;18697;42.770;23.400;2022-07-29T10:20:20;95657.22;;;30.35;35.54
32197;BME280;18697;42.770;23.400;2022-07-29T10:22:48;95658.75;;;30.46;34.95
32197;BME280;18697;42.770;23.400;2022-07-29T10:25:15;95657.19;;;30.72;35.02
32197;BME280;18697;42.770;23.400;2022-07-29T10:27:41;95658.75;;;30.92;34.44
32197;BME280;18697;42.770;23.400;2022-07-29T10:30:08;95654.41;;;31.11;34.87
32197;BME280;18697;42.770;23.400;2022-07-29T10:41:59;95649.88;;;31.08;34.40
32197;BME280;18697;42.770;23.400;2022-07-29T10:44:09;95667.19;;;30.81;34.41
32197;BME280;18697;42.770;23.400;2022-07-29T10:46:39;95642.31;;;30.93;34.89
32197;BME280;18697;42.770;23.400;2022-07-29T10:49:18;95632.22;;;31.21;35.52
32197;BME280;18697;42.770;23.400;2022-07-29T10:54:40;95621.94;;;31.47;33.46
32197;BME280;18697;42.770;23.400;2022-07-29T10:57:27;95625.56;;;31.37;34.77
32197;BME280;18697;42.770;23.400;2022-07-29T11:07:30;95619.72;;;32.05;35.25
32197;BME280;18697;42.770;23.400;2022-07-29T11:15:03;95621.19;;;32.25;34.59
32197;BME280;18697;42.770;23.400;2022-07-29T11:23:29;95599.22;;;31.89;34.86
32197;BME280;18697;42.770;23.400;2022-07-29T11:31:09;95596.25;;;31.49;33.98
32197;BME280;18697;42.770;23.400;2022-07-29T11:33:36;95588.97;;;31.67;36.80
32197;BME280;18697;42.770;23.400;2022-07-29T11:36:14;95590.34;;;31.66;36.01
32197;BME280;18697;42.770;23.400;2022-07-29T11:38:40;95589.41;;;31.83;34.87
32197;BME280;18697;42.770;23.400;2022-07-29T11:41:26;95581.44;;;31.62;35.52
32197;BME280;18697;42.770;23.400;2022-07-29T11:43:59;95585.94;;;31.84;34.24
32197;BME280;18697;42.770;23.400;2022-07-29T11:46:45;95598.47;;;31.89;33.37
32197;BME280;18697;42.770;23.400;2022-07-29T11:49:22;95582.97;;;32.03;34.58
32197;BME280;18697;42.770;23.400;2022-07-29T11:51:55;95573.75;;;32.05;34.82
32197;BME280;18697;42.770;23.400;2022-07-29T11:54:26;95580.47;;;32.29;34.84
32197;BME280;18697;42.770;23.400;2022-07-29T11:56:54;95570.09;;;32.45;34.25
32197;BME280;18697;42.770;23.400;2022-07-29T11:59:20;95574.06;;;32.40;34.23
32197;BME280;18697;42.770;23.400;2022-07-29T12:01:57;95575.66;;;32.53;33.87
32197;BME280;18697;42.770;23.400;2022-07-29T12:04:23;95568.59;;;32.44;33.43
32197;BME280;18697;42.770;23.400;2022-07-29T12:06:53;95569.06;;;32.41;34.58
32197;BME280;18697;42.770;23.400;2022-07-29T12:09:20;95566.97;;;32.41;32.87
32197;BME280;18697;42.770;23.400;2022-07-29T12:11:47;95567.56;;;32.40;32.34
32197;BME280;18697;42.770;23.400;2022-07-29T12:16:50;95568.50;;;32.32;33.76
32197;BME280;18697;42.770;23.400;2022-07-29T12:19:15;95562.06;;;32.22;33.83
32197;BME280;18697;42.770;23.400;2022-07-29T12:21:47;95569.00;;;32.19;33.23
32197;BME280;18697;42.770;23.400;2022-07-29T12:24:13;95565.09;;;32.15;33.26
32197;BME280;18697;42.770;23.400;2022-07-29T12:26:58;95557.34;;;32.27;33.06
32197;BME280;18697;42.770;23.400;2022-07-29T12:29:24;95561.09;;;32.60;34.13
32197;BME280;18697;42.770;23.400;2022-07-29T12:31:53;95560.97;;;32.80;32.43
32197;BME280;18697;42.770;23.400;2022-07-29T12:34:23;95556.38;;;32.86;33.00
32197;BME280;18697;42.770;23.400;2022-07-29T12:36:51;95546.44;;;32.56;32.42
32197;BME280;18697;42.770;23.400;2022-07-29T12:39:17;95548.22;;;32.61;31.47
32197;BME280;18697;42.770;23.400;2022-07-29T12:41:43;95546.50;;;32.47;32.11
32197;BME280;18697;42.770;23.400;2022-07-29T12:44:10;95543.25;;;32.31;32.31
32197;BME280;18697;42.770;23.400;2022-07-29T12:46:35;95541.09;;;32.41;32.33
32197;BME280;18697;42.770;23.400;2022-07-29T12:49:01;95542.66;;;32.32;32.32
32197;BME280;18697;42.770;23.400;2022-07-29T12:54:22;95537.13;;;32.46;31.54
32197;BME280;18697;42.770;23.400;2022-07-29T12:56:58;95535.22;;;32.60;31.73
32197;BME280;18697;42.770;23.400;2022-07-29T12:59:24;95533.38;;;32.65;33.17
32197;BME280;18697;42.770;23.400;2022-07-29T13:01:51;95518.91;;;32.75;32.25
32197;BME280;18697;42.770;23.400;2022-07-29T13:04:30;95517.34;;;32.83;32.94
32197;BME280;18697;42.770;23.400;2022-07-29T13:07:03;95526.25;;;32.66;33.38
32197;BME280;18697;42.770;23.400;2022-07-29T13:09:42;95512.69;;;32.57;32.31
32197;BME280;18697;42.770;23.400;2022-07-29T13:12:09;95514.00;;;32.65;33.39
32197;BME280;18697;42.770;23.400;2022-07-29T13:14:48;95504.22;;;32.59;32.67
32197;BME280;18697;42.770;23.400;2022-07-29T13:17:21;95499.34;;;32.83;31.29
32197;BME280;18697;42.770;23.400;2022-07-29T13:19:53;95496.66;;;32.75;32.22
32197;BME280;18697;42.770;23.400;2022-07-29T13:22:24;95499.22;;;32.81;32.35
32197;BME280;18697;42.770;23.400;2022-07-29T13:24:52;95507.41;;;32.96;31.36
32197;BME280;18697;42.770;23.400;2022-07-29T13:27:20;95497.69;;;32.80;31.71
32197;BME280;18697;42.770;23.400;2022-07-29T13:29:46;95496.94;;;32.79;32.05
32197;BME280;18697;42.770;23.400;2022-07-29T13:32:12;95497.63;;;32.89;31.89
32197;BME280;18697;42.770;23.400;2022-07-29T13:34:38;95493.78;;;32.75;31.78
32197;BME280;18697;42.770;23.400;2022-07-29T13:37:04;95491.50;;;32.74;31.92
32197;BME280;18697;42.770;23.400;2022-07-29T13:39:29;95485.22;;;32.87;31.57
32197;BME280;18697;42.770;23.400;2022-07-29T13:41:55;95487.44;;;32.77;32.18
32197;BME280;18697;42.770;23.400;2022-07-29T13:44:21;95479.97;;;32.83;32.06
32197;BME280;18697;42.770;23.400;2022-07-29T13:46:46;95481.34;;;32.82;30.86
32197;BME280;18697;42.770;23.400;2022-07-29T13:49:11;95478.81;;;32.77;31.30
32197;BME280;18697;42.770;23.400;2022-07-29T13:51:37;95478.81;;;32.77;31.75